Time,TemperatureF,DewpointF,PressureIn,WindDirection,WindDirectionDegrees,WindSpeedMPH,WindSpeedGustMPH,Humidity,HourlyPrecipIn,Conditions,Clouds,dailyrainin,SoftwareType,DateUTC
2013-08-09 01:02:00,79.0,75.0,30.04,North,359,0.0,0.0,87,0.00,,,0.00,,2013-08-09 05:02:00,
2013-08-09 01:32:00,79.0,75.0,30.03,North,359,0.0,0.0,89,0.00,,,0.00,,2013-08-09 05:32:00,
2013-08-09 01:43:00,79.0,75.0,30.03,North,359,0.0,0.0,89,0.00,,,0.00,,2013-08-09 05:43:00,
2013-08-09 01:52:00,79.0,76.0,30.03,North,359,0.0,0.0,90,0.00,,,0.00,,2013-08-09 05:52:00,
2013-08-09 02:01:00,79.0,76.0,30.03,North,359,0.0,0.0,90,0.00,,,0.00,,2013-08-09 06:01:00,
2013-08-09 02:32:00,78.0,75.0,30.01,North,359,0.0,0.0,91,0.00,,,0.00,,2013-08-09 06:32:00,
2013-08-09 02:43:00,78.0,75.0,30.01,North,359,0.0,0.0,92,0.00,,,0.00,,2013-08-09 06:43:00,
2013-08-09 02:52:00,78.0,75.0,30.01,North,359,0.0,0.0,92,0.00,,,0.00,,2013-08-09 06:52:00,
2013-08-09 03:01:00,78.0,75.0,30.01,North,359,0.0,0.0,92,0.00,,,0.00,,2013-08-09 07:01:00,
2013-08-09 03:12:00,78.0,76.0,30.01,North,359,0.0,0.0,93,0.00,,,0.00,,2013-08-09 07:12:00,
2013-08-09 03:22:00,78.0,76.0,30.01,North,359,0.0,0.0,93,0.00,,,0.00,,2013-08-09 07:22:00,
2013-08-09 03:33:00,78.0,76.0,30.00,North,359,0.0,0.0,93,0.00,,,0.00,,2013-08-09 07:33:00,
2013-08-09 03:43:00,77.0,75.0,30.00,North,359,0.0,0.0,94,0.00,,,0.00,,2013-08-09 07:43:00,
2013-08-09 03:53:00,77.0,75.0,30.00,North,359,0.0,0.0,95,0.00,,,0.00,,2013-08-09 07:53:00,
2013-08-09 04:02:00,77.0,75.0,30.00,North,359,0.0,0.0,95,0.00,,,0.00,,2013-08-09 08:02:00,
2013-08-09 04:32:00,77.0,76.0,30.00,North,359,0.0,0.0,96,0.00,,,0.00,,2013-08-09 08:32:00,
2013-08-09 04:43:00,77.0,76.0,29.99,North,359,0.0,0.0,96,0.00,,,0.00,,2013-08-09 08:43:00,
2013-08-09 04:53:00,77.0,76.0,30.00,North,359,0.0,0.0,97,0.00,,,0.00,,2013-08-09 08:53:00,
2013-08-09 05:02:00,77.0,76.0,30.00,North,359,0.0,0.0,97,0.00,,,0.00,,2013-08-09 09:02:00,
2013-08-09 05:22:00,77.0,76.0,29.99,North,359,0.0,0.0,98,0.00,,,0.00,,2013-08-09 09:22:00,
2013-08-09 05:52:00,77.0,76.0,30.00,North,359,0.0,0.0,98,0.00,,,0.00,,2013-08-09 09:52:00,
2013-08-09 06:01:00,77.0,76.0,30.00,North,359,0.0,0.0,98,0.00,,,0.00,,2013-08-09 10:01:00,
2013-08-09 06:22:00,77.0,76.0,30.00,North,359,0.0,0.0,98,0.00,,,0.00,,2013-08-09 10:22:00,
2013-08-09 06:43:00,76.0,75.0,30.00,North,359,0.0,0.0,98,0.00,,,0.00,,2013-08-09 10:43:00,
2013-08-09 07:53:00,76.0,76.0,30.02,North,359,0.0,0.0,100,0.00,,,0.00,,2013-08-09 11:53:00,
2013-08-09 08:43:00,80.0,79.0,30.03,North,359,0.0,0.0,96,0.00,,,0.00,,2013-08-09 12:43:00,
2013-08-09 09:32:00,84.0,76.0,30.04,North,359,0.0,0.0,78,0.00,,,0.00,,2013-08-09 13:32:00,
2013-08-09 09:52:00,84.0,76.0,30.04,North,359,0.0,0.0,76,0.00,,,0.00,,2013-08-09 13:52:00,
2013-08-09 10:02:00,84.0,75.0,30.05,North,359,0.0,0.0,74,0.00,,,0.00,,2013-08-09 14:02:00,
2013-08-09 10:33:00,85.0,75.0,30.05,North,359,0.0,0.0,72,0.00,,,0.00,,2013-08-09 14:33:00,
2013-08-09 10:43:00,85.0,75.0,30.05,North,359,0.0,0.0,71,0.00,,,0.00,,2013-08-09 14:43:00,
2013-08-09 10:53:00,85.0,75.0,30.05,North,359,0.0,0.0,72,0.00,,,0.00,,2013-08-09 14:53:00,
2013-08-09 11:02:00,86.0,74.0,30.05,North,359,0.0,0.0,67,0.00,,,0.00,,2013-08-09 15:02:00,
2013-08-09 11:33:00,86.0,74.0,30.06,North,359,0.0,0.0,67,0.00,,,0.00,,2013-08-09 15:33:00,
2013-08-09 12:01:00,86.0,72.0,30.06,North,359,0.0,0.0,64,0.00,,,0.00,,2013-08-09 16:01:00,
2013-08-09 12:11:00,87.0,74.0,30.06,North,359,0.0,0.0,65,0.00,,,0.00,,2013-08-09 16:11:00,
2013-08-09 12:32:00,88.0,74.0,30.05,North,359,0.0,0.0,63,0.00,,,0.00,,2013-08-09 16:32:00,
2013-08-09 12:53:00,87.0,73.0,30.05,North,359,0.0,0.0,64,0.00,,,0.00,,2013-08-09 16:53:00,
2013-08-09 13:02:00,87.0,72.0,30.04,North,359,0.0,0.0,61,0.00,,,0.00,,2013-08-09 17:02:00,
2013-08-09 13:33:00,89.0,73.0,30.04,North,359,0.0,0.0,59,0.00,,,0.00,,2013-08-09 17:33:00,
2013-08-09 13:52:00,89.0,71.0,30.04,North,359,0.0,0.0,55,0.00,,,0.00,,2013-08-09 17:52:00,
2013-08-09 14:01:00,89.0,70.0,30.03,North,359,0.0,0.0,53,0.00,,,0.00,,2013-08-09 18:01:00,
2013-08-09 14:11:00,89.0,69.0,30.03,North,359,0.0,0.0,52,0.00,,,0.00,,2013-08-09 18:11:00,
2013-08-09 14:53:00,90.0,68.0,30.03,North,359,0.0,0.0,49,0.00,,,0.00,,2013-08-09 18:53:00,
2013-08-09 15:02:00,90.0,68.0,30.02,North,359,0.0,0.0,48,0.00,,,0.00,,2013-08-09 19:02:00,
2013-08-09 15:43:00,90.0,69.0,30.02,North,359,0.0,0.0,50,0.00,,,0.00,,2013-08-09 19:43:00,
2013-08-09 15:52:00,89.0,69.0,30.02,North,359,0.0,0.0,52,0.00,,,0.00,,2013-08-09 19:52:00,
2013-08-09 16:43:00,90.0,70.0,30.01,North,359,0.0,0.0,52,0.00,,,0.00,,2013-08-09 20:43:00,
2013-08-09 17:43:00,88.0,68.0,30.00,North,359,0.0,0.0,52,0.00,,,0.00,,2013-08-09 21:43:00,
2013-08-09 18:01:00,88.0,70.0,30.01,North,359,0.0,0.0,56,0.00,,,0.00,,2013-08-09 22:01:00,
2013-08-09 18:22:00,87.0,70.0,30.01,North,359,0.0,0.0,58,0.00,,,0.00,,2013-08-09 22:22:00,
2013-08-09 18:32:00,87.0,70.0,30.01,North,359,0.0,0.0,58,0.00,,,0.00,,2013-08-09 22:32:00,
2013-08-09 18:42:00,86.0,71.0,30.02,North,359,0.0,0.0,62,0.00,,,0.00,,2013-08-09 22:42:00,
2013-08-09 18:52:00,86.0,71.0,30.02,North,359,0.0,0.0,62,0.00,,,0.00,,2013-08-09 22:52:00,
2013-08-09 19:52:00,84.0,70.0,30.04,North,359,0.0,0.0,64,0.00,,,0.00,,2013-08-09 23:52:00,
2013-08-09 20:01:00,84.0,71.0,30.04,North,359,0.0,0.0,66,0.00,,,0.00,,2013-08-10 00:01:00,
2013-08-09 20:33:00,83.0,73.0,30.05,North,359,0.0,0.0,71,0.00,,,0.00,,2013-08-10 00:33:00,
2013-08-09 20:43:00,87.0,70.0,30.01,North,359,0.0,0.0,58,0.00,,,0.00,,2013-08-10 00:43:00,
2013-08-09 20:52:00,83.0,73.0,30.05,North,359,0.0,0.0,73,0.00,,,0.00,,2013-08-10 00:52:00,
2013-08-09 21:01:00,82.0,73.0,30.05,North,359,0.0,0.0,74,0.00,,,0.00,,2013-08-10 01:01:00,
2013-08-09 21:11:00,82.0,73.0,30.05,North,359,0.0,0.0,74,0.00,,,0.00,,2013-08-10 01:11:00,
2013-08-09 21:22:00,82.0,73.0,30.05,North,359,0.0,0.0,74,0.00,,,0.00,,2013-08-10 01:22:00,
2013-08-09 21:32:00,82.0,73.0,30.05,North,359,0.0,0.0,74,0.00,,,0.00,,2013-08-10 01:32:00,
2013-08-09 21:42:00,81.0,73.0,30.05,North,359,0.0,0.0,77,0.00,,,0.00,,2013-08-10 01:42:00,
2013-08-09 21:52:00,81.0,73.0,30.05,North,359,0.0,0.0,77,0.00,,,0.00,,2013-08-10 01:52:00,
2013-08-09 22:03:00,81.0,73.0,30.05,North,359,0.0,0.0,77,0.00,,,0.00,,2013-08-10 02:03:00,
2013-08-09 22:11:00,80.0,72.0,30.06,North,359,0.0,0.0,78,0.00,,,0.00,,2013-08-10 02:11:00,
2013-08-09 22:21:00,80.0,72.0,30.06,North,359,0.0,0.0,78,0.00,,,0.00,,2013-08-10 02:21:00,
2013-08-09 22:32:00,80.0,72.0,30.06,North,359,0.0,0.0,78,0.00,,,0.00,,2013-08-10 02:32:00,
2013-08-09 22:42:00,80.0,73.0,30.06,North,359,0.0,0.0,79,0.00,,,0.00,,2013-08-10 02:42:00,
2013-08-09 22:52:00,80.0,73.0,30.06,North,359,0.0,0.0,79,0.00,,,0.00,,2013-08-10 02:52:00,
2013-08-09 23:01:00,79.0,74.0,30.08,North,359,0.0,0.0,84,0.00,,,0.00,,2013-08-10 03:01:00,
2013-08-09 23:11:00,79.0,74.0,30.08,North,359,0.0,0.0,84,0.00,,,0.00,,2013-08-10 03:11:00,
2013-08-09 23:22:00,79.0,73.0,30.08,North,359,0.0,0.0,83,0.00,,,0.00,,2013-08-10 03:22:00,
2013-08-09 23:32:00,79.0,73.0,30.08,North,359,0.0,0.0,82,0.00,,,0.00,,2013-08-10 03:32:00,
2013-08-09 23:42:00,79.0,73.0,30.08,North,359,0.0,0.0,81,0.00,,,0.00,,2013-08-10 03:42:00,
2013-08-09 23:52:00,80.0,72.0,30.09,North,359,0.0,0.0,77,0.00,,,0.00,,2013-08-10 03:52:00,